createdAt,value
2023-05-14T00:01:08.207Z,99590.97
2023-05-14T00:04:10.552Z,99577.03
2023-05-14T00:07:12.938Z,99586.28
2023-05-14T00:10:15.245Z,99574.03
2023-05-14T00:13:17.514Z,99571.28
2023-05-14T00:16:20.099Z,99574.94
2023-05-14T00:19:22.516Z,99574.84
2023-05-14T00:22:24.973Z,99571.38
2023-05-14T00:25:27.655Z,99573.69
2023-05-14T00:28:29.919Z,99572.94
2023-05-14T00:31:32.343Z,99561.25
2023-05-14T00:34:35.144Z,99566.38
2023-05-14T00:37:37.548Z,99561.25
2023-05-14T00:40:41.561Z,99568.50
2023-05-14T00:43:44.075Z,99564.94
2023-05-14T00:46:46.411Z,99563.50
2023-05-14T00:49:48.803Z,99572.44
2023-05-14T00:52:51.085Z,99566.41
2023-05-14T00:55:53.667Z,99562.44
2023-05-14T00:58:56.058Z,99560.63
2023-05-14T01:01:58.642Z,99566.63
2023-05-14T01:05:01.540Z,99563.19
2023-05-14T01:08:33.688Z,99563.06
2023-05-14T01:11:48.732Z,99569.19
2023-05-14T01:14:56.942Z,99560.41
2023-05-14T01:18:03.403Z,99560.97
2023-05-14T01:21:06.368Z,99560.63
2023-05-14T01:24:09.413Z,99546.38
2023-05-14T01:27:39.497Z,99549.28
2023-05-14T01:31:01.620Z,99547.19
2023-05-14T01:34:05.775Z,99547.75
2023-05-14T01:37:09.840Z,99543.94
2023-05-14T01:40:12.907Z,99535.47
2023-05-14T01:43:16.102Z,99530.56
2023-05-14T01:46:24.168Z,99525.22
2023-05-14T01:49:26.548Z,99518.91
2023-05-14T01:52:28.819Z,99519.13
2023-05-14T01:55:31.192Z,99511.56
2023-05-14T01:58:33.455Z,99506.09
2023-05-14T02:01:36.077Z,99500.88
2023-05-14T02:04:38.753Z,99500.88
2023-05-14T02:07:41.045Z,99508.22
2023-05-14T02:10:44.388Z,99494.19
2023-05-14T02:13:46.795Z,99494.44
2023-05-14T02:16:51.043Z,99478.75
2023-05-14T02:19:53.448Z,99486.06
2023-05-14T02:22:55.802Z,99490.31
2023-05-14T02:25:58.052Z,99479.28
2023-05-14T02:29:00.318Z,99467.03
2023-05-14T02:32:02.553Z,99470.94
2023-05-14T02:35:05.352Z,99477.03
2023-05-14T02:38:08.073Z,99464.50
2023-05-14T02:41:10.531Z,99469.81
2023-05-14T02:44:13.468Z,99473.69
2023-05-14T02:47:15.782Z,99470.16
2023-05-14T02:50:18.120Z,99471.38
2023-05-14T02:53:20.393Z,99471.13
2023-05-14T02:56:22.663Z,99480.28
2023-05-14T02:59:25.213Z,99471.38
2023-05-14T03:02:28.428Z,99462.81
2023-05-14T03:05:31.206Z,99460.41
2023-05-14T03:08:33.553Z,99464.94
2023-05-14T03:11:35.994Z,99459.25
2023-05-14T03:14:38.249Z,99457.50
2023-05-14T03:17:40.731Z,99444.25
2023-05-14T03:20:43.163Z,99446.69
2023-05-14T03:23:45.499Z,99444.13
2023-05-14T03:26:47.823Z,99444.81
2023-05-14T03:29:50.073Z,99434.22
2023-05-14T03:32:52.508Z,99433.34
2023-05-14T03:35:54.837Z,99443.81
2023-05-14T03:38:57.095Z,99447.69
2023-05-14T03:41:59.501Z,99443.03
2023-05-14T03:45:02.096Z,99437.72
2023-05-14T03:48:04.904Z,99448.56
2023-05-14T03:51:08.080Z,99450.91
2023-05-14T03:54:11.648Z,99445.59
2023-05-14T03:57:14.167Z,99446.63
2023-05-14T04:00:16.710Z,99461.75
2023-05-14T04:03:19.415Z,99463.53
2023-05-14T04:06:22.376Z,99461.28
2023-05-14T04:09:24.820Z,99452.72
2023-05-14T04:12:27.208Z,99448.03
2023-05-14T04:15:30.049Z,99444.81
2023-05-14T04:18:35.354Z,99445.94
2023-05-14T04:21:37.687Z,99454.59
2023-05-14T04:24:40.208Z,99458.03
2023-05-14T04:27:42.515Z,99450.34
2023-05-14T04:30:45.745Z,99447.97
2023-05-14T04:33:48.397Z,99442.38
2023-05-14T04:36:51.442Z,99446.84
2023-05-14T04:39:53.791Z,99441.72
2023-05-14T04:42:56.054Z,99438.81
2023-05-14T04:45:58.392Z,99439.25
2023-05-14T04:49:00.693Z,99425.38
2023-05-14T04:52:02.957Z,99432.47
2023-05-14T04:55:06.039Z,99436.84
2023-05-14T04:58:08.404Z,99436.94
2023-05-14T05:01:10.771Z,99428.81
2023-05-14T05:04:13.526Z,99433.25
2023-05-14T05:07:16.113Z,99431.56
2023-05-14T05:10:18.417Z,99428.03
2023-05-14T05:13:20.829Z,99429.47
2023-05-14T05:16:23.276Z,99431.81
2023-05-14T05:19:35.606Z,99420.13
2023-05-14T05:22:42.282Z,99432.69
2023-05-14T05:25:44.610Z,99430.66
2023-05-14T05:28:46.892Z,99422.72
2023-05-14T05:31:49.843Z,99430.91
2023-05-14T05:34:52.166Z,99428.66
2023-05-14T05:37:54.432Z,99425.22
2023-05-14T05:40:56.823Z,99418.91
2023-05-14T05:43:59.148Z,99428.03
2023-05-14T05:47:01.707Z,99428.47
2023-05-14T05:50:04.617Z,99428.00
2023-05-14T05:53:06.895Z,99420.00
2023-05-14T05:56:09.197Z,99420.06
2023-05-14T05:59:11.531Z,99421.34
2023-05-14T06:02:13.918Z,99419.97
2023-05-14T06:05:16.471Z,99421.34
2023-05-14T06:08:19.103Z,99415.81
2023-05-14T06:11:21.862Z,99414.84
2023-05-14T06:14:24.132Z,99419.13
2023-05-14T06:17:26.909Z,99426.84
2023-05-14T06:20:29.285Z,99428.38
2023-05-14T06:23:31.568Z,99430.19
2023-05-14T06:26:33.838Z,99421.63
2023-05-14T06:29:36.484Z,99423.31
2023-05-14T06:32:39.008Z,99429.53
2023-05-14T06:35:41.550Z,99431.53
2023-05-14T06:38:43.814Z,99428.56
2023-05-14T06:41:46.106Z,99426.41
2023-05-14T06:44:50.623Z,99430.56
2023-05-14T06:47:53.008Z,99430.06
2023-05-14T06:50:55.722Z,99426.03
2023-05-14T06:53:58.248Z,99427.41
2023-05-14T06:57:00.599Z,99420.00
2023-05-14T07:00:03.779Z,99417.31
2023-05-14T07:03:06.471Z,99409.25
2023-05-14T07:06:09.291Z,99411.00
2023-05-14T07:09:12.273Z,99401.22
2023-05-14T07:12:14.584Z,99393.53
2023-05-14T07:15:16.992Z,99399.63
2023-05-14T07:18:19.425Z,99380.91
2023-05-14T07:21:21.826Z,99391.25
2023-05-14T07:24:24.298Z,99387.38
2023-05-14T07:27:26.725Z,99386.84
2023-05-14T07:30:29.040Z,99384.91
2023-05-14T07:33:31.585Z,99376.00
2023-05-14T07:36:34.069Z,99384.47
2023-05-14T07:39:36.394Z,99374.47
2023-05-14T07:42:38.814Z,99368.72
2023-05-14T07:45:41.260Z,99355.75
2023-05-14T07:48:43.689Z,99365.09
2023-05-14T07:51:46.296Z,99363.34
2023-05-14T07:54:50.614Z,99357.41
2023-05-14T07:57:53.145Z,99356.09
2023-05-14T08:00:56.616Z,99355.56
2023-05-14T08:03:59.274Z,99348.47
2023-05-14T08:07:01.868Z,99348.63
2023-05-14T08:10:04.400Z,99342.31
2023-05-14T08:13:06.796Z,99348.97
2023-05-14T08:16:09.335Z,99330.81
2023-05-14T08:19:12.925Z,99332.19
2023-05-14T08:22:15.469Z,99321.44
2023-05-14T08:25:17.753Z,99323.59
2023-05-14T08:28:20.062Z,99320.94
2023-05-14T08:31:22.470Z,99312.41
2023-05-14T08:34:24.938Z,99315.31
2023-05-14T08:37:27.346Z,99305.63
2023-05-14T08:40:29.641Z,99307.56
2023-05-14T08:43:55.128Z,99308.06
2023-05-14T08:46:57.902Z,99304.38
2023-05-14T08:50:05.486Z,99292.53
2023-05-14T08:53:07.937Z,99289.03
2023-05-14T08:56:10.494Z,99276.22
2023-05-14T08:59:13.418Z,99274.22
2023-05-14T09:02:17.423Z,99277.91
2023-05-14T09:05:20.427Z,99272.25
2023-05-14T09:08:23.181Z,99268.25
2023-05-14T09:11:25.572Z,99261.16
2023-05-14T09:14:28.016Z,99274.19
2023-05-14T09:17:31.809Z,99269.25
2023-05-14T09:20:34.709Z,99269.03
2023-05-14T09:23:42.496Z,99274.66
2023-05-14T09:26:44.806Z,99268.75
2023-05-14T09:29:48.098Z,99265.56
2023-05-14T09:32:54.135Z,99262.06
2023-05-14T09:36:02.840Z,99255.06
2023-05-14T09:39:05.382Z,99244.56
2023-05-14T09:42:07.945Z,99240.78
2023-05-14T09:45:10.877Z,99231.28
2023-05-14T09:48:13.408Z,99233.06
2023-05-14T09:51:21.340Z,99229.25
2023-05-14T09:54:26.164Z,99229.66
2023-05-14T09:57:29.114Z,99238.66
2023-05-14T10:00:35.736Z,99216.84
2023-05-14T10:03:38.310Z,99218.63
2023-05-14T10:06:42.979Z,99225.78
2023-05-14T10:09:46.424Z,99218.44
2023-05-14T10:12:52.945Z,99211.34
2023-05-14T10:16:08.282Z,99224.56
2023-05-14T10:19:12.347Z,99208.91
2023-05-14T10:22:17.753Z,99202.94
2023-05-14T10:25:20.208Z,99197.97
2023-05-14T10:28:22.702Z,99190.63
2023-05-14T10:31:51.370Z,99163.97
2023-05-14T10:34:54.034Z,99161.00
2023-05-14T10:37:56.949Z,99149.47
2023-05-14T10:41:21.664Z,99150.59
2023-05-14T10:44:24.194Z,99139.81
2023-05-14T10:47:27.049Z,99150.81
2023-05-14T10:50:29.769Z,99165.78
2023-05-14T10:53:43.135Z,99174.59
2023-05-14T10:56:49.875Z,99163.88
2023-05-14T10:59:55.189Z,99178.00
2023-05-14T11:02:57.870Z,99167.91
2023-05-14T11:06:03.974Z,99155.34
2023-05-14T11:09:06.819Z,99152.94
2023-05-14T11:12:09.417Z,99152.06
2023-05-14T11:15:14.161Z,99155.41
2023-05-14T11:18:29.351Z,99163.78
2023-05-14T11:21:32.933Z,99160.72
2023-05-14T11:24:35.462Z,99157.75
2023-05-14T11:27:39.230Z,99149.94
2023-05-14T11:30:41.758Z,99156.31
2023-05-14T11:33:44.587Z,99152.75
2023-05-14T11:36:46.884Z,99156.38
2023-05-14T11:39:51.200Z,99147.72
2023-05-14T11:42:53.791Z,99143.94
2023-05-14T11:45:56.827Z,99143.31
2023-05-14T11:48:59.182Z,99135.03
2023-05-14T11:52:03.042Z,99140.72
2023-05-14T11:55:06.374Z,99122.16
2023-05-14T11:58:08.810Z,99129.44
2023-05-14T12:01:13.654Z,99124.91
2023-05-14T12:04:19.024Z,99129.59
2023-05-14T12:07:21.420Z,99124.56
2023-05-14T12:10:24.193Z,99123.63
2023-05-14T12:13:28.314Z,99115.34
2023-05-14T12:16:35.549Z,99106.28
2023-05-14T12:19:42.011Z,99113.22
2023-05-14T12:22:44.413Z,99104.69
2023-05-14T12:25:51.430Z,99096.91
2023-05-14T12:29:00.005Z,99091.03
2023-05-14T12:32:04.671Z,99077.09
2023-05-14T12:35:07.257Z,99069.38
2023-05-14T12:38:09.845Z,99068.19
2023-05-14T12:41:12.106Z,99066.66
2023-05-14T12:44:14.378Z,99071.56
2023-05-14T12:47:17.323Z,99066.41
2023-05-14T12:50:19.786Z,99059.75
2023-05-14T12:53:22.057Z,99063.03
2023-05-14T12:56:28.256Z,99048.03
2023-05-14T12:59:30.575Z,99056.53
2023-05-14T13:02:32.890Z,99045.88
2023-05-14T13:05:35.221Z,99044.44
2023-05-14T13:08:37.555Z,99034.94
2023-05-14T13:11:39.929Z,99034.06
2023-05-14T13:14:42.208Z,99023.97
2023-05-14T13:17:44.596Z,99016.50
2023-05-14T13:20:50.113Z,99006.88
2023-05-14T13:23:52.407Z,99007.81
2023-05-14T13:26:54.784Z,99011.91
2023-05-14T13:29:57.119Z,99011.22
2023-05-14T13:33:00.097Z,99010.31
2023-05-14T13:36:02.864Z,99003.31
2023-05-14T13:39:06.856Z,98999.31
2023-05-14T13:42:09.411Z,98994.06
2023-05-14T13:45:13.112Z,99001.22
2023-05-14T13:48:15.502Z,99002.44
2023-05-14T13:51:17.931Z,98975.66
2023-05-14T13:54:20.355Z,98971.97
2023-05-14T13:57:23.148Z,98964.00
2023-05-14T14:00:27.172Z,98948.34
2023-05-14T14:03:29.453Z,98950.53
2023-05-14T14:06:34.635Z,98958.63
2023-05-14T14:09:36.973Z,98952.44
2023-05-14T14:12:39.349Z,98964.47
2023-05-14T14:15:41.732Z,98970.41
2023-05-14T14:18:45.126Z,98962.34
2023-05-14T14:21:47.842Z,98972.63
2023-05-14T14:24:50.136Z,98974.09
2023-05-14T14:27:52.532Z,98978.16
2023-05-14T14:30:54.834Z,98966.25
2023-05-14T14:33:57.188Z,98970.16
2023-05-14T14:36:59.486Z,98961.47
2023-05-14T14:40:01.743Z,98957.00
2023-05-14T14:43:04.075Z,98939.63
2023-05-14T14:46:06.717Z,98948.84
2023-05-14T14:49:09.165Z,98938.31
2023-05-14T14:52:11.491Z,98937.44
2023-05-14T14:55:13.777Z,98943.38
2023-05-14T14:58:16.085Z,98927.31
2023-05-14T15:01:18.584Z,98933.72
2023-05-14T15:04:20.886Z,98934.06
2023-05-14T15:07:23.169Z,98935.53
2023-05-14T15:10:28.645Z,98935.34
2023-05-14T15:13:31.228Z,98925.09
2023-05-14T15:16:33.619Z,98913.06
2023-05-14T15:19:36.232Z,98903.53
2023-05-14T15:22:38.645Z,98899.69
2023-05-14T15:25:41.052Z,98895.53
2023-05-14T15:28:43.637Z,98898.47
2023-05-14T15:31:46.231Z,98887.03
2023-05-14T15:34:48.501Z,98877.00
2023-05-14T15:37:50.904Z,98891.13
2023-05-14T15:40:53.304Z,98890.16
2023-05-14T15:43:56.231Z,98894.56
2023-05-14T15:46:58.546Z,98895.56
2023-05-14T15:50:01.216Z,98889.81
2023-05-14T15:53:03.626Z,98884.50
2023-05-14T15:56:06.303Z,98878.47
2023-05-14T15:59:08.664Z,98874.06
2023-05-14T16:02:11.396Z,98874.84
2023-05-14T16:05:15.178Z,98866.97
2023-05-14T16:08:17.477Z,98857.44
2023-05-14T16:11:19.757Z,98856.91
2023-05-14T16:14:22.898Z,98851.06
2023-05-14T16:17:26.811Z,98846.28
2023-05-14T16:20:29.195Z,98825.41
2023-05-14T16:23:31.449Z,98833.88
2023-05-14T16:26:33.838Z,98826.66
2023-05-14T16:29:36.298Z,98824.91
2023-05-14T16:32:38.703Z,98823.22
2023-05-14T16:35:41.100Z,98831.97
2023-05-14T16:38:57.170Z,98832.66
2023-05-14T16:42:06.193Z,98840.97
2023-05-14T16:45:09.119Z,98845.56
2023-05-14T16:48:11.656Z,98837.34
2023-05-14T16:51:14.115Z,98842.22
2023-05-14T16:54:16.681Z,98830.38
2023-05-14T16:57:19.127Z,98827.78
2023-05-14T17:00:21.561Z,98810.75
2023-05-14T17:03:23.954Z,98802.50
2023-05-14T17:06:26.283Z,98803.56
2023-05-14T17:09:28.645Z,98787.03
2023-05-14T17:12:30.946Z,98790.50
2023-05-14T17:15:33.636Z,98783.22
2023-05-14T17:18:36.061Z,98797.13
2023-05-14T17:21:38.393Z,98797.13
2023-05-14T17:24:40.786Z,98781.72
2023-05-14T17:27:43.076Z,98783.59
2023-05-14T17:30:45.641Z,98774.03
2023-05-14T17:33:47.921Z,98780.84
2023-05-14T17:36:50.495Z,98776.72
2023-05-14T17:39:53.175Z,98779.16
2023-05-14T17:42:55.443Z,98767.16
2023-05-14T17:45:57.952Z,98762.72
2023-05-14T17:49:00.216Z,98755.94
2023-05-14T17:52:02.826Z,98745.94
2023-05-14T17:55:05.592Z,98746.19
2023-05-14T17:58:07.918Z,98753.25
2023-05-14T18:01:10.318Z,98752.38
2023-05-14T18:04:12.827Z,98740.63
2023-05-14T18:07:15.193Z,98748.25
2023-05-14T18:10:17.783Z,98730.91
2023-05-14T18:13:20.176Z,98725.22
2023-05-14T18:16:26.916Z,98727.78
2023-05-14T18:19:29.241Z,98722.41
2023-05-14T18:22:32.154Z,98717.53
2023-05-14T18:25:34.435Z,98720.50
2023-05-14T18:28:37.289Z,98724.59
2023-05-14T18:31:39.573Z,98724.25
2023-05-14T18:34:41.860Z,98720.41
2023-05-14T18:37:44.122Z,98724.97
2023-05-14T18:40:46.665Z,98719.13
2023-05-14T18:43:48.910Z,98719.38
2023-05-14T18:46:51.289Z,98712.84
2023-05-14T18:49:55.790Z,98719.66
2023-05-14T18:53:02.948Z,98731.06
2023-05-14T18:56:15.365Z,98717.22
2023-05-14T18:59:18.944Z,98724.97
2023-05-14T19:02:22.150Z,98722.34
2023-05-14T19:05:24.646Z,98724.28
2023-05-14T19:08:33.541Z,98729.78
2023-05-14T19:11:40.002Z,98725.34
2023-05-14T19:14:54.646Z,98723.66
2023-05-14T19:17:57.719Z,98720.56
2023-05-14T19:21:00.052Z,98727.72
2023-05-14T19:24:02.918Z,98730.03
2023-05-14T19:27:05.936Z,98720.41
2023-05-14T19:30:33.956Z,98693.06
2023-05-14T19:33:39.219Z,98694.66
2023-05-14T19:36:42.080Z,98694.50
2023-05-14T19:39:44.640Z,98684.31
2023-05-14T19:42:51.788Z,98698.09
2023-05-14T19:45:54.727Z,98690.81
2023-05-14T19:48:57.845Z,98689.44
2023-05-14T19:52:00.458Z,98680.88
2023-05-14T19:55:02.813Z,98679.00
2023-05-14T19:58:05.088Z,98684.31
2023-05-14T20:01:07.979Z,98683.38
2023-05-14T20:04:12.072Z,98679.13
2023-05-14T20:07:30.225Z,98681.06
2023-05-14T20:10:32.452Z,98669.88
2023-05-14T20:13:38.743Z,98674.31
2023-05-14T20:16:41.709Z,98665.75
2023-05-14T20:19:50.173Z,98666.44
2023-05-14T20:23:21.682Z,98665.50
2023-05-14T20:26:24.025Z,98647.88
2023-05-14T20:29:26.328Z,98648.59
2023-05-14T20:32:28.727Z,98636.84
2023-05-14T20:35:31.272Z,98655.41
2023-05-14T20:38:35.016Z,98648.50
2023-05-14T20:41:37.949Z,98651.84
2023-05-14T20:44:40.318Z,98645.94
2023-05-14T20:47:42.722Z,98642.59
2023-05-14T20:50:44.954Z,98640.66
2023-05-14T20:53:47.509Z,98655.66
2023-05-14T20:56:49.818Z,98648.66
2023-05-14T20:59:52.106Z,98654.06
2023-05-14T21:02:54.628Z,98655.47
2023-05-14T21:05:57.081Z,98667.06
2023-05-14T21:08:59.507Z,98666.00
2023-05-14T21:12:01.789Z,98653.41
2023-05-14T21:15:04.553Z,98631.78
2023-05-14T21:18:06.853Z,98622.97
2023-05-14T21:21:09.174Z,98627.59
2023-05-14T21:24:11.489Z,98624.41
2023-05-14T21:27:13.807Z,98629.78
2023-05-14T21:30:16.085Z,98624.47
2023-05-14T21:33:18.964Z,98632.28
2023-05-14T21:36:21.396Z,98615.13
2023-05-14T21:39:23.646Z,98614.94
2023-05-14T21:42:26.004Z,98607.00
2023-05-14T21:45:28.689Z,98604.53
2023-05-14T21:48:31.175Z,98601.94
2023-05-14T21:51:34.077Z,98602.69
2023-05-14T21:54:36.392Z,98590.81
2023-05-14T21:57:38.633Z,98587.38
2023-05-14T22:00:41.204Z,98577.75
2023-05-14T22:03:43.501Z,98579.69
2023-05-14T22:06:46.000Z,98582.19
2023-05-14T22:09:49.333Z,98567.50
2023-05-14T22:12:52.363Z,98563.25
2023-05-14T22:16:01.350Z,98556.44
2023-05-14T22:19:16.455Z,98540.66
2023-05-14T22:22:19.059Z,98540.97
2023-05-14T22:25:21.327Z,98546.16
2023-05-14T22:28:23.788Z,98553.34
2023-05-14T22:31:26.081Z,98559.22
2023-05-14T22:34:28.394Z,98563.47
2023-05-14T22:37:30.801Z,98563.66
2023-05-14T22:40:33.129Z,98558.53
2023-05-14T22:43:35.410Z,98553.09
2023-05-14T22:46:37.894Z,98561.09
2023-05-14T22:49:40.717Z,98567.16
2023-05-14T22:52:42.994Z,98557.72
2023-05-14T22:55:45.581Z,98541.38
2023-05-14T22:58:48.061Z,98544.09
2023-05-14T23:01:50.462Z,98538.72
2023-05-14T23:04:52.933Z,98532.66
2023-05-14T23:07:55.500Z,98523.25
2023-05-14T23:10:57.738Z,98528.47
2023-05-14T23:14:00.010Z,98527.00
2023-05-14T23:17:02.237Z,98526.78
2023-05-14T23:20:06.054Z,98526.78
2023-05-14T23:23:08.493Z,98534.72
2023-05-14T23:26:11.008Z,98527.19
2023-05-14T23:29:13.288Z,98529.75
2023-05-14T23:32:15.636Z,98518.53
2023-05-14T23:35:17.936Z,98522.88
2023-05-14T23:38:21.012Z,98509.22
2023-05-14T23:41:23.372Z,98508.34
2023-05-14T23:44:26.930Z,98508.41
2023-05-14T23:47:29.301Z,98495.94
2023-05-14T23:50:31.928Z,98483.81
2023-05-14T23:53:34.616Z,98482.13
2023-05-14T23:56:37.307Z,98484.69
2023-05-14T23:59:40.535Z,98479.72
